Terminal Aerodrome Forecast
Issued by NWS Tampa Bay Area, FL

Home | Current Version | Previous Version | Text Only | Print | Product List | Glossary On
Versions: 1 2 3 4 5 6 7 8 9 10 11 12 13 14 15 16 17 18 19 20 21 22 23 24 25 26
948
FTUS42 KTBW 140256 AAA
TAFTPA
TAF AMD
KTPA 140256Z 1403/1424 34008KT P6SM SKC
     FM140400 02007KT P6SM SKC
     FM141500 06008KT P6SM SKC
     FM141900 10008KT P6SM FEW250=

USA.gov is the U.S. government's official web portal to all federal, state and local government web resources and services.